Time;durP1;ratioP1;P1;durP2;ratioP2;P2;SDS_P1;SDS_P2;PMS_P1;PMS_P2;Temp;Humidity;BMP_temperature;BMP_pressure;BME280_temperature;BME280_humidity;BME280_pressure;Samples;Min_cycle;Max_cycle;Signal;HPM_P1;HPM_P2
2023/01/07 00:01:09;;;;;;;28.67;19.10;;;25.00;44.50;;;;;;5047559;27;88972;-59
2023/01/07 00:03:37;;;;;;;25.83;17.80;;;24.90;45.70;;;;;;5081140;27;88900;-58
2023/01/07 00:06:06;;;;;;;25.50;16.67;;;25.40;54.20;;;;;;5072802;27;87146;-58
2023/01/07 00:08:35;;;;;;;24.07;16.17;;;24.90;48.70;;;;;;5060954;27;86966;-58
2023/01/07 00:11:06;;;;;;;22.30;16.43;;;24.80;48.60;;;;;;5059869;27;89890;-58
2023/01/07 00:13:34;;;;;;;24.47;15.43;;;24.70;48.90;;;;;;5060677;27;89946;-58
2023/01/07 00:16:02;;;;;;;20.77;13.90;;;24.70;49.40;;;;;;5060323;27;88563;-58
2023/01/07 00:18:30;;;;;;;22.43;13.70;;;24.60;49.70;;;;;;5070248;27;87484;-58
2023/01/07 00:20:59;;;;;;;19.83;13.80;;;;;;;;;;5080561;27;89187;-58
2023/01/07 00:23:27;;;;;;;14.67;10.23;;;;;;;;;;5072261;27;88754;-58
2023/01/07 00:26:00;;;;;;;14.33;10.37;;;;;;;;;;5060671;27;87060;-58
2023/01/07 00:28:29;;;;;;;14.33;9.37;;;;;;;;;;5060896;27;86283;-58
2023/01/07 00:31:00;;;;;;;14.23;9.07;;;;;;;;;;5060901;27;87061;-58
2023/01/07 00:33:28;;;;;;;12.43;9.40;;;;;;;;;;5061153;27;89125;-59
2023/01/07 00:36:00;;;;;;;12.50;8.57;;;;;;;;;;5060111;27;89134;-58
2023/01/07 00:38:28;;;;;;;10.37;7.00;;;;;;;;;;5060690;27;87142;-58
2023/01/07 00:40:57;;;;;;;10.03;7.00;;;;;;;;;;5060887;27;87969;-59
2023/01/07 00:43:25;;;;;;;11.60;8.17;;;;;;;;;;5060932;27;88735;-59
2023/01/07 00:45:55;;;;;;;7.77;6.10;;;;;;;;;;5061043;27;87084;-57
2023/01/07 00:48:24;;;;;;;8.17;6.27;;;;;;;;;;5061220;27;87046;-57
2023/01/07 00:50:52;;;;;;;7.43;6.03;;;;;;;;;;5071018;27;89136;-59
2023/01/07 00:53:20;;;;;;;6.37;5.00;;;;;;;;;;5073219;27;88935;-59
2023/01/07 00:55:49;;;;;;;5.67;4.47;;;;;;;;;;5060782;27;87056;-58
2023/01/07 00:58:19;;;;;;;7.40;5.77;;;;;;;;;;5072451;27;87114;-58
2023/01/07 01:00:48;;;;;;;5.47;4.57;;;;;;;;;;5060111;27;89131;-58
2023/01/07 01:03:18;;;;;;;5.57;3.90;;;;;;;;;;5060068;27;89740;-58
2023/01/07 01:05:46;;;;;;;4.97;3.97;;;;;;;;;;5060854;27;87066;-58
2023/01/07 01:08:14;;;;;;;6.13;4.37;;;;;;;;;;5061823;27;86978;-58
2023/01/07 01:10:43;;;;;;;4.33;3.93;;;;;;;;;;5079466;27;89167;-59
2023/01/07 01:13:11;;;;;;;5.73;3.87;;;;;;;;;;5079161;27;88868;-59
2023/01/07 01:15:42;;;;;;;5.00;3.60;;;25.90;53.00;;;;;;5040233;28;87043;-58
2023/01/07 01:18:10;;;;;;;4.03;3.30;;;25.80;52.40;;;;;;5058206;27;86261;-58
2023/01/07 01:20:39;;;;;;;3.53;3.23;;;25.70;52.60;;;;;;5061715;27;89145;-58
2023/01/07 01:23:07;;;;;;;4.67;2.87;;;25.60;53.10;;;;;;5060238;27;87111;-58
2023/01/07 01:25:35;;;;;;;3.40;3.03;;;25.50;53.70;;;;;;5060210;27;88010;-58
2023/01/07 01:28:03;;;;;;;3.60;2.93;;;25.40;53.90;;;;;;5075727;27;87141;-58
2023/01/07 01:30:31;;;;;;;3.17;2.87;;;25.40;54.40;;;;;;5060662;27;88117;-58
2023/01/07 01:32:59;;;;;;;2.30;1.90;;;25.40;55.00;;;;;;5059937;27;89064;-58
2023/01/07 01:35:27;;;;;;;3.87;2.50;;;26.50;52.00;;;;;;5063305;27;87002;-58
2023/01/07 01:37:59;;;;;;;3.67;2.63;;;25.30;55.50;;;;;;5063205;27;88774;-58
2023/01/07 01:40:29;;;;;;;2.83;2.53;;;25.20;48.90;;;;;;5043879;27;94308;-58
2023/01/07 01:42:57;;;;;;;4.47;2.70;;;25.10;48.80;;;;;;5060972;27;94046;-58
2023/01/07 01:45:26;;;;;;;2.50;1.90;;;25.10;48.90;;;;;;5049177;27;92159;-58
2023/01/07 01:47:56;;;;;;;4.57;2.67;;;25.10;49.00;;;;;;5040560;27;91953;-58
2023/01/07 01:50:26;;;;;;;2.90;2.00;;;25.00;49.10;;;;;;5062658;27;94259;-58
2023/01/07 01:52:55;;;;;;;2.40;2.17;;;24.90;49.10;;;;;;5060736;27;93429;-59
2023/01/07 01:55:27;;;;;;;2.40;2.00;;;24.90;49.20;;;;;;5061489;27;92033;-58
2023/01/07 01:57:57;;;;;;;2.10;1.87;;;24.90;49.30;;;;;;5061368;27;92057;-58
2023/01/07 02:00:25;;;;;;;3.33;2.17;;;24.80;49.40;;;;;;5061003;27;93325;-58
2023/01/07 02:02:56;;;;;;;2.67;1.70;;;24.80;49.50;;;;;;5060093;27;93968;-58
2023/01/07 02:05:25;;;;;;;2.13;1.90;;;24.70;49.60;;;;;;5074576;27;94057;-58
2023/01/07 02:07:53;;;;;;;1.20;1.10;;;24.70;49.60;;;;;;5081321;27;91203;-58
2023/01/07 02:10:22;;;;;;;1.20;1.10;;;24.70;49.80;;;;;;5071625;27;94119;-59
2023/01/07 02:13:02;;;;;;;1.77;1.40;;;24.60;49.70;;;;;;5060239;27;93326;-58
2023/01/07 02:15:33;;;;;;;2.50;1.60;;;24.60;49.80;;;;;;5078715;27;93060;-59
2023/01/07 02:18:12;;;;;;;1.40;1.20;;;24.60;50.00;;;;;;5079866;27;92147;-59
2023/01/07 02:20:59;;;;;;;3.07;1.03;;;24.50;50.70;;;;;;5075404;27;93204;-59
2023/01/07 02:24:07;;;;;;;1.53;1.37;;;24.50;51.10;;;;;;5059499;27;92752;-58
2023/01/07 02:26:55;;;;;;;3.33;1.30;;;24.40;50.90;;;;;;5060113;27;92186;-58
2023/01/07 02:29:57;;;;;;;1.23;1.13;;;24.40;50.90;;;;;;5060092;27;93151;-58
2023/01/07 02:32:33;;;;;;;1.90;1.30;;;24.30;51.20;;;;;;5060090;27;94732;-58
2023/01/07 02:35:05;;;;;;;1.07;0.70;;;24.30;52.20;;;;;;5059765;27;92711;-58
2023/01/07 02:37:36;;;;;;;1.03;0.97;;;;;;;;;;5060338;27;92171;-58
2023/01/07 02:40:05;;;;;;;1.37;1.27;;;;;;;;;;5060756;27;91927;-58
2023/01/07 02:42:35;;;;;;;1.80;1.07;;;;;;;;;;5060072;27;95558;-58
2023/01/07 02:45:05;;;;;;;2.20;1.30;;;;;;;;;;5059472;27;93616;-58
2023/01/07 02:47:37;;;;;;;1.43;1.30;;;;;;;;;;5060627;27;92073;-59
2023/01/07 02:50:05;;;;;;;2.13;1.20;;;;;;;;;;5060451;27;91966;-58
2023/01/07 02:52:33;;;;;;;2.10;1.37;;;24.30;51.70;;;;;;5059687;27;93154;-59
2023/01/07 02:55:02;;;;;;;0.80;0.80;;;24.20;48.70;;;;;;5059450;27;93902;-57
2023/01/07 02:57:45;;;;;;;1.00;0.90;;;24.10;49.40;;;;;;5060183;27;91970;-58
2023/01/07 03:00:22;;;;;;;1.27;0.97;;;24.10;48.00;;;;;;5076962;27;91382;-58
2023/01/07 03:03:04;;;;;;;1.80;1.10;;;24.00;48.20;;;;;;5059243;27;94205;-59
2023/01/07 03:05:40;;;;;;;1.27;1.00;;;24.10;48.50;;;;;;5064652;27;93832;-58
2023/01/07 03:08:15;;;;;;;2.10;1.10;;;24.10;48.80;;;;;;5079862;27;93837;-58
2023/01/07 03:10:46;;;;;;;2.70;1.53;;;24.00;48.80;;;;;;5048807;27;92103;-58
2023/01/07 03:13:16;;;;;;;1.10;1.00;;;24.00;49.10;;;;;;5071154;27;94198;-58
2023/01/07 03:15:45;;;;;;;1.20;1.00;;;24.00;49.10;;;;;;5063213;27;94091;-59
2023/01/07 03:18:17;;;;;;;1.37;1.03;;;23.90;49.20;;;;;;5068146;27;93296;-58
2023/01/07 03:20:45;;;;;;;2.10;1.27;;;23.90;49.30;;;;;;5078226;27;92085;-58
2023/01/07 03:23:13;;;;;;;1.27;0.93;;;23.90;49.30;;;;;;5079084;27;93315;-60
2023/01/07 03:25:43;;;;;;;1.70;1.13;;;23.90;49.60;;;;;;5065472;27;92920;-58
2023/01/07 03:28:12;;;;;;;1.60;1.37;;;23.90;49.80;;;;;;5076074;27;92255;-58
2023/01/07 03:30:40;;;;;;;1.47;1.30;;;23.90;50.00;;;;;;5059575;27;92295;-59
2023/01/07 03:33:12;;;;;;;1.07;0.97;;;23.80;50.30;;;;;;5067781;27;94290;-58
2023/01/07 03:35:42;;;;;;;1.87;0.90;;;23.80;50.70;;;;;;5078955;27;94791;-59
2023/01/07 03:38:10;;;;;;;1.80;0.93;;;23.80;51.90;;;;;;5079566;27;92095;-59
2023/01/07 03:40:38;;;;;;;1.60;1.13;;;23.80;52.30;;;;;;5079764;27;92065;-58
2023/01/07 03:43:11;;;;;;;1.77;1.17;;;23.80;48.90;;;;;;5079460;27;94147;-58
2023/01/07 03:45:39;;;;;;;1.43;1.20;;;23.80;49.30;;;;;;5079632;27;93914;-57
2023/01/07 03:48:08;;;;;;;1.83;1.20;;;23.70;50.90;;;;;;5079104;27;92101;-58
2023/01/07 03:50:36;;;;;;;1.03;0.97;;;23.70;55.40;;;;;;5079699;27;91227;-58
2023/01/07 03:53:05;;;;;;;1.30;0.90;;;23.70;50.90;;;;;;5079639;27;94241;-57
2023/01/07 03:55:33;;;;;;;2.03;1.10;;;23.60;51.10;;;;;;5068193;27;92381;-59
2023/01/07 03:58:01;;;;;;;1.60;0.80;;;23.60;50.80;;;;;;5070883;27;93646;-57
2023/01/07 04:00:29;;;;;;;1.50;1.00;;;23.60;50.70;;;;;;5069217;27;92090;-57
2023/01/07 04:02:57;;;;;;;1.80;1.00;;;23.60;50.80;;;;;;5072435;27;94300;-58
2023/01/07 04:05:25;;;;;;;1.00;0.90;;;23.60;50.70;;;;;;5077196;27;92793;-58
2023/01/07 04:07:53;;;;;;;2.67;1.20;;;23.60;50.70;;;;;;5041625;27;92096;-58
2023/01/07 04:10:22;;;;;;;2.00;0.70;;;23.60;50.70;;;;;;5058935;27;92058;-58
2023/01/07 04:12:50;;;;;;;0.93;0.83;;;23.50;50.70;;;;;;5067849;27;93174;-58
2023/01/07 04:15:18;;;;;;;1.70;1.20;;;23.60;50.70;;;;;;5071791;27;94099;-59
2023/01/07 04:17:46;;;;;;;1.33;0.93;;;23.50;50.70;;;;;;5060457;27;92952;-59
2023/01/07 04:20:14;;;;;;;1.23;0.90;;;23.50;50.80;;;;;;5058971;27;92041;-58
2023/01/07 04:22:42;;;;;;;2.20;1.03;;;23.50;50.80;;;;;;5057719;27;95111;-58
2023/01/07 04:25:10;;;;;;;1.13;1.00;;;23.50;51.40;;;;;;5057733;27;93771;-58
2023/01/07 04:27:40;;;;;;;1.80;1.10;;;23.50;50.80;;;;;;5061736;27;91993;-58
2023/01/07 04:30:09;;;;;;;0.77;0.73;;;23.50;50.90;;;;;;5078617;27;92001;-59
2023/01/07 04:32:37;;;;;;;2.80;1.50;;;23.50;51.00;;;;;;5078242;27;93995;-58
2023/01/07 04:35:06;;;;;;;1.33;1.10;;;23.40;50.80;;;;;;5064600;27;94259;-58
2023/01/07 04:37:34;;;;;;;1.73;1.10;;;23.40;50.80;;;;;;5078314;27;92093;-58
2023/01/07 04:40:02;;;;;;;1.23;1.10;;;23.40;50.80;;;;;;5078959;27;91362;-59
2023/01/07 04:42:30;;;;;;;1.50;0.80;;;23.40;50.80;;;;;;5078236;27;94135;-58
2023/01/07 04:44:59;;;;;;;0.77;0.77;;;23.40;51.00;;;;;;5077977;27;93988;-58
2023/01/07 04:47:27;;;;;;;2.07;1.10;;;23.40;51.00;;;;;;5078012;27;93022;-58
2023/01/07 04:49:55;;;;;;;2.83;0.93;;;23.30;50.90;;;;;;5076858;27;92110;-57
2023/01/07 04:52:23;;;;;;;0.87;0.83;;;23.30;51.00;;;;;;5078220;27;94222;-58
2023/01/07 04:54:51;;;;;;;1.37;0.70;;;23.30;50.90;;;;;;5062885;27;92964;-60
2023/01/07 04:57:19;;;;;;;1.47;0.73;;;23.30;50.90;;;;;;5076443;27;92097;-58
2023/01/07 04:59:47;;;;;;;1.20;1.07;;;23.30;51.10;;;;;;5071820;27;92166;-57
2023/01/07 05:02:16;;;;;;;0.80;0.70;;;23.30;51.10;;;;;;5048165;27;94317;-60
2023/01/07 05:04:44;;;;;;;1.37;0.93;;;23.20;51.10;;;;;;5037936;27;92731;-57
2023/01/07 05:07:12;;;;;;;1.27;0.87;;;23.20;51.20;;;;;;5073842;27;92268;-59
2023/01/07 05:09:40;;;;;;;0.73;0.73;;;23.20;51.20;;;;;;5063560;27;92203;-59
2023/01/07 05:12:08;;;;;;;1.20;0.80;;;23.20;51.20;;;;;;5075671;27;94193;-60
2023/01/07 05:14:36;;;;;;;0.90;0.70;;;23.20;51.30;;;;;;5072518;27;95139;-59
2023/01/07 05:17:04;;;;;;;0.90;0.70;;;23.20;51.40;;;;;;5080051;27;92071;-59
2023/01/07 05:19:34;;;;;;;1.70;1.10;;;23.20;51.60;;;;;;5079141;27;92578;-59
2023/01/07 05:22:02;;;;;;;4.67;1.10;;;23.10;51.60;;;;;;5081850;27;94111;-60
2023/01/07 05:24:30;;;;;;;1.30;1.03;;;23.20;51.90;;;;;;5068272;27;93815;-58
2023/01/07 05:26:58;;;;;;;1.13;0.70;;;23.10;52.00;;;;;;5061533;27;92096;-58
2023/01/07 05:29:26;;;;;;;1.20;0.70;;;22.60;52.50;;;;;;5065350;27;91343;-58
2023/01/07 05:31:54;;;;;;;0.60;0.50;;;22.80;64.20;;;;;;5073532;27;93158;-59
2023/01/07 05:34:22;;;;;;;0.60;0.60;;;23.10;53.00;;;;;;5061382;27;92931;-58
2023/01/07 05:36:51;;;;;;;0.93;0.70;;;23.10;52.80;;;;;;5060543;27;93088;-58
2023/01/07 05:39:19;;;;;;;1.53;1.13;;;23.10;52.50;;;;;;5063768;27;92111;-58
2023/01/07 05:41:47;;;;;;;1.37;0.90;;;23.10;52.10;;;;;;5080754;27;94281;-58
2023/01/07 05:44:15;;;;;;;1.00;0.90;;;23.10;52.00;;;;;;5060878;27;93961;-57
2023/01/07 05:46:43;;;;;;;0.63;0.63;;;23.10;52.00;;;;;;5061111;27;92039;-58
2023/01/07 05:49:11;;;;;;;1.77;0.60;;;23.00;51.70;;;;;;5079267;27;92154;-58
2023/01/07 05:51:39;;;;;;;0.73;0.73;;;23.00;51.70;;;;;;5080817;27;93232;-58
2023/01/07 05:54:09;;;;;;;2.73;0.60;;;23.00;51.70;;;;;;5080968;27;92700;-58
2023/01/07 05:56:37;;;;;;;1.70;0.60;;;23.00;51.60;;;;;;5081498;27;93646;-58
2023/01/07 05:59:05;;;;;;;1.03;0.80;;;23.10;51.80;;;;;;5078096;27;92701;-58
2023/01/07 06:01:33;;;;;;;1.00;0.60;;;23.00;51.80;;;;;;5074964;27;95113;-58
2023/01/07 06:04:02;;;;;;;0.90;0.90;;;23.00;51.90;;;;;;5069891;27;92171;-58
2023/01/07 06:06:30;;;;;;;1.67;1.00;;;22.90;51.80;;;;;;5067952;27;92089;-58
2023/01/07 06:08:58;;;;;;;1.27;0.70;;;22.90;51.90;;;;;;5061833;27;92023;-58
2023/01/07 06:11:28;;;;;;;0.97;0.83;;;22.90;52.00;;;;;;5043555;27;94269;-58
2023/01/07 06:13:56;;;;;;;1.63;0.80;;;22.90;52.70;;;;;;5063274;27;93831;-58
2023/01/07 06:16:24;;;;;;;0.83;0.50;;;22.90;52.10;;;;;;5078970;27;92096;-58
2023/01/07 06:18:52;;;;;;;0.70;0.60;;;22.90;52.20;;;;;;5061381;27;91312;-58
2023/01/07 06:21:20;;;;;;;1.83;0.50;;;22.90;52.30;;;;;;5060367;27;93501;-58
2023/01/07 06:23:48;;;;;;;0.87;0.83;;;22.90;52.50;;;;;;5069663;27;94203;-59
2023/01/07 06:26:16;;;;;;;0.43;0.43;;;22.90;52.60;;;;;;5080718;27;92972;-60
2023/01/07 06:28:45;;;;;;;0.60;0.60;;;22.80;52.60;;;;;;5080991;27;92130;-58
2023/01/07 06:31:13;;;;;;;0.93;0.60;;;22.80;52.70;;;;;;5076090;27;94159;-58
2023/01/07 06:33:41;;;;;;;1.00;0.90;;;22.80;52.80;;;;;;5070533;27;93886;-58
2023/01/07 06:36:10;;;;;;;0.70;0.70;;;22.80;52.80;;;;;;5066554;27;92135;-59
2023/01/07 06:38:38;;;;;;;4.03;0.77;;;22.80;52.90;;;;;;5060440;27;92048;-59
2023/01/07 06:41:06;;;;;;;2.10;0.80;;;22.80;53.10;;;;;;5060093;27;93228;-58
2023/01/07 06:43:34;;;;;;;0.57;0.57;;;22.80;53.20;;;;;;5060133;27;93842;-58
2023/01/07 06:46:03;;;;;;;0.63;0.63;;;22.70;53.30;;;;;;5067955;27;92198;-58
2023/01/07 06:48:31;;;;;;;1.77;0.70;;;22.60;53.20;;;;;;5080640;27;92039;-58
2023/01/07 06:50:59;;;;;;;0.50;0.47;;;22.70;53.50;;;;;;5076487;27;95181;-58
2023/01/07 06:53:27;;;;;;;1.00;0.80;;;22.70;53.80;;;;;;5073337;27;93709;-59
2023/01/07 06:55:55;;;;;;;0.63;0.63;;;22.70;54.10;;;;;;5060395;27;92050;-58
2023/01/07 06:58:23;;;;;;;1.77;0.90;;;22.70;54.20;;;;;;5060490;27;92009;-59
2023/01/07 07:00:51;;;;;;;0.40;0.40;;;22.70;54.60;;;;;;5060749;27;94132;-59
2023/01/07 07:03:21;;;;;;;0.50;0.50;;;22.70;54.80;;;;;;5059841;27;92812;-59
2023/01/07 07:05:49;;;;;;;1.73;0.90;;;22.70;55.20;;;;;;5074652;27;91995;-59
2023/01/07 07:08:17;;;;;;;0.60;0.60;;;22.70;55.40;;;;;;5063462;27;91161;-59
2023/01/07 07:10:45;;;;;;;0.93;0.80;;;22.70;55.70;;;;;;5076567;27;93146;-59
2023/01/07 07:13:13;;;;;;;0.73;0.50;;;22.70;56.40;;;;;;5079525;27;92858;-59
2023/01/07 07:15:40;;;;;;;0.47;0.47;;;22.70;58.00;;;;;;5071430;27;93183;-59
2023/01/07 07:18:08;;;;;;;0.57;0.57;;;22.70;59.70;;;;;;5059130;27;92032;-59
2023/01/07 07:20:38;;;;;;;1.03;0.70;;;22.70;58.40;;;;;;5059286;27;93085;-59
2023/01/07 07:23:06;;;;;;;0.70;0.70;;;22.60;58.00;;;;;;5058865;27;94107;-59
2023/01/07 07:25:34;;;;;;;0.60;0.60;;;22.60;58.90;;;;;;5059693;27;92406;-59
2023/01/07 07:28:02;;;;;;;0.93;0.50;;;22.50;58.40;;;;;;5059781;27;92123;-59
2023/01/07 07:30:30;;;;;;;0.73;0.73;;;22.60;60.10;;;;;;5074178;27;94296;-59
2023/01/07 07:33:14;;;;;;;1.03;0.73;;;22.60;57.60;;;;;;5042678;27;92954;-60
2023/01/07 07:35:44;;;;;;;1.47;0.57;;;22.60;61.80;;;;;;5060543;27;92171;-59
2023/01/07 07:38:12;;;;;;;0.93;0.60;;;22.60;57.90;;;;;;5066278;27;92066;-59
2023/01/07 07:40:40;;;;;;;0.60;0.60;;;22.60;58.60;;;;;;5078626;27;95326;-59
2023/01/07 07:43:08;;;;;;;0.73;0.60;;;22.50;58.90;;;;;;5079190;27;94728;-59
2023/01/07 07:45:40;;;;;;;0.50;0.50;;;22.20;59.80;;;;;;5079251;27;92109;-59
2023/01/07 07:48:08;;;;;;;1.87;0.63;;;22.60;60.70;;;;;;5079608;27;92075;-59
2023/01/07 07:50:36;;;;;;;0.57;0.47;;;22.50;58.90;;;;;;5076656;27;94167;-59
2023/01/07 07:53:08;;;;;;;0.67;0.63;;;22.50;59.60;;;;;;5076579;27;92080;-59
2023/01/07 07:55:37;;;;;;;0.53;0.53;;;22.50;54.60;;;;;;5078747;27;92076;-59
2023/01/07 07:58:05;;;;;;;1.20;0.70;;;22.40;49.70;;;;;;5068738;27;92406;-59
2023/01/07 08:00:33;;;;;;;1.00;0.93;;;22.40;49.20;;;;;;5072931;27;94132;-60
2023/01/07 08:03:01;;;;;;;0.60;0.60;;;22.40;49.10;;;;;;5078550;27;92736;-60
2023/01/07 08:05:29;;;;;;;0.60;0.60;;;22.40;49.20;;;;;;5078445;27;93013;-60
2023/01/07 08:07:58;;;;;;;2.13;0.53;;;22.40;49.80;;;;;;5069957;27;92115;-60
2023/01/07 08:10:27;;;;;;;1.13;0.60;;;22.40;50.30;;;;;;5067231;27;94601;-60
2023/01/07 08:12:55;;;;;;;2.27;0.70;;;22.40;54.30;;;;;;5076823;27;93985;-60
2023/01/07 08:15:23;;;;;;;0.30;0.30;;;22.40;50.90;;;;;;5075274;27;92038;-60
2023/01/07 08:17:58;;;;;;;1.43;0.40;;;22.40;51.50;;;;;;5076481;27;92037;-60
2023/01/07 08:20:26;;;;;;;0.40;0.40;;;22.40;61.50;;;;;;5058432;27;97262;-59
2023/01/07 08:22:54;;;;;;;0.87;0.60;;;22.40;48.70;;;;;;5058222;27;92779;-59
2023/01/07 08:25:22;;;;;;;0.60;0.60;;;22.40;48.60;;;;;;5058974;27;92133;-58
2023/01/07 08:27:51;;;;;;;0.60;0.40;;;22.40;49.40;;;;;;5078008;27;92419;-58
2023/01/07 08:30:19;;;;;;;1.90;0.77;;;22.40;49.10;;;;;;5076364;27;95103;-58
2023/01/07 08:32:47;;;;;;;0.70;0.70;;;22.30;49.20;;;;;;5059596;27;94877;-58
2023/01/07 08:35:16;;;;;;;0.57;0.57;;;22.40;50.00;;;;;;5058528;27;92039;-58
2023/01/07 08:37:44;;;;;;;0.70;0.60;;;22.30;52.10;;;;;;5058001;27;93862;-58
2023/01/07 08:40:12;;;;;;;0.57;0.57;;;22.50;63.30;;;;;;5074308;27;93252;-58
2023/01/07 08:42:40;;;;;;;0.60;0.60;;;22.40;65.80;;;;;;5077856;27;93867;-58
2023/01/07 08:45:11;;;;;;;0.50;0.50;;;22.30;46.90;;;;;;5077062;27;92096;-58
2023/01/07 08:47:39;;;;;;;0.70;0.53;;;22.30;47.10;;;;;;5079445;27;91277;-58
2023/01/07 08:50:08;;;;;;;0.57;0.40;;;22.30;47.70;;;;;;5076925;27;94181;-59
2023/01/07 08:52:36;;;;;;;0.93;0.80;;;22.30;47.30;;;;;;5075098;27;92990;-58
2023/01/07 08:55:04;;;;;;;0.53;0.53;;;22.30;47.30;;;;;;5072405;27;93041;-59
2023/01/07 08:57:32;;;;;;;0.40;0.40;;;22.30;47.90;;;;;;5058271;27;92126;-59
2023/01/07 09:00:00;;;;;;;0.57;0.57;;;22.30;47.30;;;;;;5042266;27;94332;-58
2023/01/07 09:02:30;;;;;;;1.30;0.53;;;22.30;47.30;;;;;;5069202;27;93818;-59
2023/01/07 09:04:58;;;;;;;0.30;0.30;;;22.30;47.30;;;;;;5058963;27;92348;-58
2023/01/07 09:07:26;;;;;;;0.70;0.70;;;22.30;47.40;;;;;;5074129;27;92066;-58
2023/01/07 09:09:54;;;;;;;0.23;0.23;;;22.20;47.40;;;;;;5057530;27;94231;-58
2023/01/07 09:12:22;;;;;;;0.97;0.50;;;22.20;47.50;;;;;;5060606;27;93795;-60
2023/01/07 09:14:51;;;;;;;0.30;0.30;;;22.20;47.60;;;;;;5071543;27;92114;-58
2023/01/07 09:17:19;;;;;;;0.53;0.53;;;22.20;47.60;;;;;;5057947;27;93047;-58
2023/01/07 09:19:48;;;;;;;0.57;0.57;;;22.20;47.60;;;;;;5057078;27;95103;-59
2023/01/07 09:22:16;;;;;;;0.60;0.60;;;22.20;47.60;;;;;;5057897;27;93553;-59
2023/01/07 09:24:44;;;;;;;0.50;0.50;;;22.20;47.60;;;;;;5038429;27;92132;-58
2023/01/07 09:27:15;;;;;;;0.73;0.50;;;22.20;47.60;;;;;;5037205;27;92065;-58
2023/01/07 09:29:43;;;;;;;0.30;0.30;;;22.20;47.60;;;;;;5053087;27;94198;-58
2023/01/07 09:32:11;;;;;;;0.60;0.60;;;22.20;47.70;;;;;;5058867;27;93974;-58
2023/01/07 09:34:39;;;;;;;0.30;0.30;;;22.20;47.70;;;;;;5058817;27;92122;-59
2023/01/07 09:37:09;;;;;;;0.67;0.67;;;22.20;47.70;;;;;;5057828;27;92104;-59
2023/01/07 09:39:37;;;;;;;0.40;0.40;;;22.10;47.60;;;;;;5059698;27;93754;-59
2023/01/07 09:42:07;;;;;;;0.50;0.50;;;22.10;47.70;;;;;;5063006;27;94183;-60
2023/01/07 09:44:49;;;;;;;1.53;0.50;;;22.10;47.70;;;;;;5070675;27;93114;-59
2023/01/07 09:47:18;;;;;;;2.20;0.73;;;22.10;47.80;;;;;;5077846;27;92174;-59
2023/01/07 09:49:46;;;;;;;0.40;0.40;;;22.20;47.80;;;;;;5077530;27;94357;-59
2023/01/07 09:52:19;;;;;;;1.50;0.50;;;22.20;47.90;;;;;;5077856;27;93959;-59
2023/01/07 09:54:48;;;;;;;0.57;0.37;;;22.30;48.00;;;;;;5078841;27;92061;-60
2023/01/07 09:57:17;;;;;;;0.30;0.30;;;22.30;48.40;;;;;;5081651;27;92202;-59
2023/01/07 09:59:45;;;;;;;0.57;0.57;;;22.50;47.90;;;;;;5081323;27;93140;-59
2023/01/07 10:02:20;;;;;;;0.30;0.30;;;22.60;47.90;;;;;;5081751;27;92810;-59
2023/01/07 10:04:50;;;;;;;0.30;0.30;;;22.80;47.90;;;;;;5081443;27;91971;-59
2023/01/07 10:07:23;;;;;;;0.40;0.33;;;23.00;47.70;;;;;;5081460;27;92158;-59
2023/01/07 10:09:58;;;;;;;0.50;0.50;;;23.30;47.90;;;;;;5080436;27;95216;-59
2023/01/07 10:12:28;;;;;;;0.30;0.30;;;23.40;47.60;;;;;;5080700;27;95108;-59
2023/01/07 10:15:08;;;;;;;0.40;0.40;;;23.60;47.50;;;;;;5081515;27;92128;-59
2023/01/07 10:17:45;;;;;;;1.67;0.30;;;23.80;47.50;;;;;;5080676;27;92104;-59
2023/01/07 10:20:15;;;;;;;0.50;0.30;;;24.10;48.20;;;;;;5080202;27;93147;-59
2023/01/07 10:22:50;;;;;;;1.63;0.37;;;24.30;47.50;;;;;;5080806;27;93816;-59
2023/01/07 10:25:19;;;;;;;0.30;0.30;;;24.40;47.50;;;;;;5081807;27;92116;-59
2023/01/07 10:27:48;;;;;;;0.30;0.30;;;24.60;47.60;;;;;;5081026;27;91346;-59
2023/01/07 10:30:19;;;;;;;1.80;0.40;;;24.80;47.90;;;;;;5080086;27;93128;-59
2023/01/07 10:32:47;;;;;;;0.40;0.40;;;24.90;49.70;;;;;;5080325;27;93662;-59
2023/01/07 10:35:19;;;;;;;1.13;0.40;;;25.00;54.90;;;;;;5080555;27;93028;-59
2023/01/07 10:37:48;;;;;;;0.43;0.43;;;25.10;51.50;;;;;;5080712;27;92248;-59
2023/01/07 10:40:25;;;;;;;0.50;0.50;;;25.20;57.30;;;;;;5080081;27;94088;-59
2023/01/07 10:42:55;;;;;;;0.50;0.50;;;25.10;48.30;;;;;;5080638;27;92931;-59
2023/01/07 10:45:30;;;;;;;0.57;0.57;;;25.00;48.00;;;;;;5080948;27;92072;-59
2023/01/07 10:48:20;;;;;;;0.57;0.40;;;25.20;48.10;;;;;;5080572;27;92076;-59
2023/01/07 10:51:13;;;;;;;0.40;0.40;;;25.20;48.20;;;;;;5079581;27;94377;-59
2023/01/07 10:53:49;;;;;;;0.77;0.30;;;25.30;48.50;;;;;;5080583;27;92876;-59
2023/01/07 10:56:22;;;;;;;0.20;0.20;;;25.40;48.80;;;;;;5080458;27;92069;-59
2023/01/07 10:58:50;;;;;;;0.37;0.20;;;25.60;49.00;;;;;;5080219;27;92095;-59
2023/01/07 11:01:22;;;;;;;0.70;0.40;;;25.70;49.40;;;;;;5079938;27;95072;-59
2023/01/07 11:03:50;;;;;;;0.20;0.20;;;25.80;51.60;;;;;;5079762;27;93671;-59
2023/01/07 11:06:21;;;;;;;0.30;0.30;;;25.90;50.10;;;;;;5080002;27;91968;-58
2023/01/07 11:08:52;;;;;;;0.40;0.40;;;26.10;46.00;;;;;;5079957;27;92153;-58
2023/01/07 11:11:20;;;;;;;0.30;0.30;;;26.20;46.00;;;;;;5079076;27;93331;-58
2023/01/07 11:13:54;;;;;;;0.30;0.30;;;26.30;45.90;;;;;;5079906;27;94015;-58
2023/01/07 11:16:24;;;;;;;1.03;0.20;;;26.40;46.30;;;;;;5079803;27;92132;-58
2023/01/07 11:18:54;;;;;;;0.20;0.20;;;26.50;46.50;;;;;;5080710;27;91255;-58
2023/01/07 11:21:31;;;;;;;0.40;0.40;;;26.60;46.70;;;;;;5079481;27;94059;-58
2023/01/07 11:24:31;;;;;;;0.30;0.30;;;26.70;46.90;;;;;;5079638;27;94004;-58
2023/01/07 11:27:02;;;;;;;0.20;0.20;;;26.70;47.00;;;;;;5079810;27;92886;-60
2023/01/07 11:29:33;;;;;;;0.50;0.30;;;26.80;46.90;;;;;;5079733;27;92031;-58
2023/01/07 11:32:02;;;;;;;0.20;0.20;;;26.80;47.60;;;;;;5079822;27;94173;-58
2023/01/07 11:34:33;;;;;;;0.50;0.50;;;27.20;47.00;;;;;;5079753;27;92510;-58
2023/01/07 11:37:01;;;;;;;0.40;0.40;;;26.80;44.90;;;;;;5079777;27;93279;-59
2023/01/07 11:39:31;;;;;;;0.67;0.37;;;26.70;45.00;;;;;;5079831;27;92121;-58
2023/01/07 11:42:37;;;;;;;0.53;0.30;;;26.70;45.30;;;;;;5079356;27;93145;-58
2023/01/07 11:44:48;;;;;;;0.43;0.43;;;26.70;45.50;;;;;;5079789;27;92929;-58
2023/01/07 11:47:16;;;;;;;0.67;0.40;;;26.70;45.70;;;;;;5079962;27;92074;-58
2023/01/07 11:49:44;;;;;;;0.20;0.20;;;26.70;45.90;;;;;;5079813;27;92108;-58
2023/01/07 11:52:18;;;;;;;0.63;0.40;;;26.70;46.90;;;;;;5078879;27;93068;-58
2023/01/07 11:54:50;;;;;;;0.20;0.20;;;26.70;46.70;;;;;;5078938;27;92612;-58
2023/01/07 11:57:22;;;;;;;0.83;0.73;;;26.60;47.00;;;;;;5079727;27;92151;-58
2023/01/07 12:00:14;;;;;;;0.40;0.40;;;26.60;47.50;;;;;;5079876;27;92132;-58
2023/01/07 12:02:42;;;;;;;0.50;0.40;;;26.50;48.10;;;;;;5079187;27;94434;-59
2023/01/07 12:05:17;;;;;;;0.20;0.20;;;;;;;;;;5078332;27;92764;-58
2023/01/07 12:07:46;;;;;;;0.20;0.20;;;26.30;47.50;;;;;;5079324;27;92123;-58
2023/01/07 12:10:30;;;;;;;0.30;0.30;;;26.20;48.70;;;;;;5079613;27;91364;-58
2023/01/07 12:12:58;;;;;;;0.20;0.20;;;26.10;50.20;;;;;;5079112;27;94080;-59
2023/01/07 12:15:28;;;;;;;0.37;0.33;;;28.40;50.30;;;;;;5079119;27;92956;-58
2023/01/07 12:18:01;;;;;;;0.30;0.30;;;;;;;;;;5078304;27;92896;-58
2023/01/07 12:20:40;;;;;;;1.20;0.50;;;26.20;57.50;;;;;;5079384;27;92077;-58
2023/01/07 12:23:16;;;;;;;0.43;0.43;;;26.00;51.00;;;;;;5078637;27;93207;-59
2023/01/07 12:25:50;;;;;;;0.40;0.40;;;25.80;50.30;;;;;;5078884;27;93962;-60
2023/01/07 12:28:18;;;;;;;0.53;0.53;;;25.80;50.80;;;;;;5079185;27;92066;-59
2023/01/07 12:31:05;;;;;;;0.60;0.47;;;25.80;51.50;;;;;;5078890;27;93070;-59
2023/01/07 12:33:56;;;;;;;0.40;0.30;;;25.70;52.30;;;;;;5077916;27;94387;-59
2023/01/07 12:36:30;;;;;;;0.97;0.40;;;25.70;53.70;;;;;;5079195;27;93888;-58
2023/01/07 12:38:59;;;;;;;0.83;0.33;;;25.60;59.60;;;;;;5078612;27;92126;-59
2023/01/07 12:41:30;;;;;;;0.57;0.40;;;25.50;59.30;;;;;;5079150;27;92146;-59
2023/01/07 12:44:01;;;;;;;0.53;0.50;;;25.50;57.60;;;;;;5078055;27;94294;-59
2023/01/07 12:46:32;;;;;;;0.30;0.30;;;25.50;58.70;;;;;;5078725;27;94812;-59
2023/01/07 12:49:05;;;;;;;0.40;0.30;;;25.40;53.30;;;;;;5079018;27;92104;-60
2023/01/07 12:51:36;;;;;;;0.40;0.40;;;25.30;52.70;;;;;;5078904;27;92015;-59
2023/01/07 12:54:06;;;;;;;0.93;0.60;;;25.30;52.80;;;;;;5078126;27;94242;-59
2023/01/07 12:56:37;;;;;;;0.40;0.33;;;25.30;52.60;;;;;;5078247;27;92813;-60
2023/01/07 12:59:13;;;;;;;0.50;0.50;;;25.20;52.90;;;;;;5078575;27;92006;-59
2023/01/07 13:02:10;;;;;;;0.87;0.50;;;25.20;53.00;;;;;;5078730;27;91422;-59
2023/01/07 13:04:41;;;;;;;0.43;0.43;;;25.10;53.00;;;;;;5078026;27;94599;-60
2023/01/07 13:07:13;;;;;;;0.70;0.40;;;25.10;53.20;;;;;;5077905;27;92676;-59
2023/01/07 13:09:45;;;;;;;3.93;0.50;;;25.00;53.40;;;;;;5078106;27;93067;-59
2023/01/07 13:12:46;;;;;;;0.93;0.40;;;25.00;53.50;;;;;;5078665;27;92185;-59